sensor_id;sensor_type;location;lat;lon;timestamp;temperature;humidity
24408;DHT22;12542;50.924;4.516;2023-03-03T00:01:13;4.40;99.90
24408;DHT22;12542;50.924;4.516;2023-03-03T00:03:42;4.30;99.90
24408;DHT22;12542;50.924;4.516;2023-03-03T00:06:13;4.40;99.90
24408;DHT22;12542;50.924;4.516;2023-03-03T00:08:39;4.40;99.90
24408;DHT22;12542;50.924;4.516;2023-03-03T00:11:05;4.00;99.90
24408;DHT22;12542;50.924;4.516;2023-03-03T00:13:54;3.80;99.90
24408;DHT22;12542;50.924;4.516;2023-03-03T00:16:31;3.80;99.90
24408;DHT22;12542;50.924;4.516;2023-03-03T00:19:00;3.90;99.90
24408;DHT22;12542;50.924;4.516;2023-03-03T00:21:41;4.10;99.90
24408;DHT22;12542;50.924;4.516;2023-03-03T00:24:23;4.00;99.90
24408;DHT22;12542;50.924;4.516;2023-03-03T00:26:52;3.90;99.90
24408;DHT22;12542;50.924;4.516;2023-03-03T00:29:40;4.10;99.90
24408;DHT22;12542;50.924;4.516;2023-03-03T00:35:29;4.10;99.90
24408;DHT22;12542;50.924;4.516;2023-03-03T00:37:57;4.00;99.90
24408;DHT22;12542;50.924;4.516;2023-03-03T00:40:34;3.90;99.90
24408;DHT22;12542;50.924;4.516;2023-03-03T00:43:01;3.90;99.90
24408;DHT22;12542;50.924;4.516;2023-03-03T00:47:53;3.60;99.90
24408;DHT22;12542;50.924;4.516;2023-03-03T00:50:26;3.70;99.90
24408;DHT22;12542;50.924;4.516;2023-03-03T00:55:27;3.70;99.90
24408;DHT22;12542;50.924;4.516;2023-03-03T00:57:55;3.50;99.90
24408;DHT22;12542;50.924;4.516;2023-03-03T01:00:21;3.50;99.90
24408;DHT22;12542;50.924;4.516;2023-03-03T01:02:47;3.50;99.90
24408;DHT22;12542;50.924;4.516;2023-03-03T01:05:14;3.40;99.90
24408;DHT22;12542;50.924;4.516;2023-03-03T01:07:41;3.40;99.90
24408;DHT22;12542;50.924;4.516;2023-03-03T01:10:08;3.40;99.90
24408;DHT22;12542;50.924;4.516;2023-03-03T01:12:34;3.50;99.90
24408;DHT22;12542;50.924;4.516;2023-03-03T01:15:01;3.60;99.90
24408;DHT22;12542;50.924;4.516;2023-03-03T01:17:28;3.50;99.90
24408;DHT22;12542;50.924;4.516;2023-03-03T01:19:53;3.40;99.90
24408;DHT22;12542;50.924;4.516;2023-03-03T01:22:19;3.40;99.90
24408;DHT22;12542;50.924;4.516;2023-03-03T01:24:45;3.40;99.90
24408;DHT22;12542;50.924;4.516;2023-03-03T01:27:10;3.40;99.90
24408;DHT22;12542;50.924;4.516;2023-03-03T01:29:36;3.40;99.90
24408;DHT22;12542;50.924;4.516;2023-03-03T01:32:02;3.30;99.90
24408;DHT22;12542;50.924;4.516;2023-03-03T01:34:27;3.40;99.90
24408;DHT22;12542;50.924;4.516;2023-03-03T01:36:53;3.30;99.90
24408;DHT22;12542;50.924;4.516;2023-03-03T01:39:19;3.20;99.90
24408;DHT22;12542;50.924;4.516;2023-03-03T01:41:44;3.20;99.90
24408;DHT22;12542;50.924;4.516;2023-03-03T01:44:14;3.20;99.90
24408;DHT22;12542;50.924;4.516;2023-03-03T01:46:52;3.20;99.90
24408;DHT22;12542;50.924;4.516;2023-03-03T01:49:28;3.20;99.90
24408;DHT22;12542;50.924;4.516;2023-03-03T01:52:00;3.40;99.90
24408;DHT22;12542;50.924;4.516;2023-03-03T01:54:41;3.20;99.90
24408;DHT22;12542;50.924;4.516;2023-03-03T01:57:15;3.20;99.90
24408;DHT22;12542;50.924;4.516;2023-03-03T01:59:47;3.30;99.90
24408;DHT22;12542;50.924;4.516;2023-03-03T02:02:18;3.20;99.90
24408;DHT22;12542;50.924;4.516;2023-03-03T02:04:44;3.10;99.90
24408;DHT22;12542;50.924;4.516;2023-03-03T02:07:11;3.10;99.90
24408;DHT22;12542;50.924;4.516;2023-03-03T02:10:13;3.20;99.90
24408;DHT22;12542;50.924;4.516;2023-03-03T02:12:44;3.20;99.90
24408;DHT22;12542;50.924;4.516;2023-03-03T02:15:31;3.30;99.90
24408;DHT22;12542;50.924;4.516;2023-03-03T02:18:00;3.30;99.90
24408;DHT22;12542;50.924;4.516;2023-03-03T02:28:11;3.40;99.90
24408;DHT22;12542;50.924;4.516;2023-03-03T02:30:39;3.40;99.90
24408;DHT22;12542;50.924;4.516;2023-03-03T02:33:05;3.30;99.90
24408;DHT22;12542;50.924;4.516;2023-03-03T02:35:34;3.30;99.90
24408;DHT22;12542;50.924;4.516;2023-03-03T02:41:17;3.30;99.90
24408;DHT22;12542;50.924;4.516;2023-03-03T02:43:59;3.50;99.90
24408;DHT22;12542;50.924;4.516;2023-03-03T02:46:35;3.50;99.90
24408;DHT22;12542;50.924;4.516;2023-03-03T02:49:04;3.40;99.90
24408;DHT22;12542;50.924;4.516;2023-03-03T02:51:33;3.30;99.90
24408;DHT22;12542;50.924;4.516;2023-03-03T02:53:59;3.10;99.90
24408;DHT22;12542;50.924;4.516;2023-03-03T02:56:25;3.10;99.90
24408;DHT22;12542;50.924;4.516;2023-03-03T02:58:51;3.20;99.90
24408;DHT22;12542;50.924;4.516;2023-03-03T03:01:17;3.20;99.90
24408;DHT22;12542;50.924;4.516;2023-03-03T03:03:44;3.20;99.90
24408;DHT22;12542;50.924;4.516;2023-03-03T03:06:10;3.40;99.90
24408;DHT22;12542;50.924;4.516;2023-03-03T03:08:36;3.10;99.90
24408;DHT22;12542;50.924;4.516;2023-03-03T03:11:03;3.30;99.90
24408;DHT22;12542;50.924;4.516;2023-03-03T03:13:31;3.40;99.90
24408;DHT22;12542;50.924;4.516;2023-03-03T03:15:57;3.50;99.90
24408;DHT22;12542;50.924;4.516;2023-03-03T03:18:24;3.50;99.90
24408;DHT22;12542;50.924;4.516;2023-03-03T03:20:50;3.70;99.90
24408;DHT22;12542;50.924;4.516;2023-03-03T03:23:16;3.60;99.90
24408;DHT22;12542;50.924;4.516;2023-03-03T03:25:42;3.60;99.90
24408;DHT22;12542;50.924;4.516;2023-03-03T03:28:15;3.60;99.90
24408;DHT22;12542;50.924;4.516;2023-03-03T03:30:43;3.80;99.90
24408;DHT22;12542;50.924;4.516;2023-03-03T03:33:10;3.70;99.90
24408;DHT22;12542;50.924;4.516;2023-03-03T03:35:36;3.70;99.90
24408;DHT22;12542;50.924;4.516;2023-03-03T03:38:02;3.90;99.90
24408;DHT22;12542;50.924;4.516;2023-03-03T03:40:28;4.10;99.90
24408;DHT22;12542;50.924;4.516;2023-03-03T03:42:54;4.10;99.90
24408;DHT22;12542;50.924;4.516;2023-03-03T03:45:20;3.90;99.90
24408;DHT22;12542;50.924;4.516;2023-03-03T03:47:46;3.90;99.90
24408;DHT22;12542;50.924;4.516;2023-03-03T03:50:13;3.40;99.90
24408;DHT22;12542;50.924;4.516;2023-03-03T03:52:39;3.40;99.90
24408;DHT22;12542;50.924;4.516;2023-03-03T03:55:05;3.30;99.90
24408;DHT22;12542;50.924;4.516;2023-03-03T03:57:31;3.10;99.90
24408;DHT22;12542;50.924;4.516;2023-03-03T03:59:57;3.30;99.90
24408;DHT22;12542;50.924;4.516;2023-03-03T04:02:23;3.70;99.90
24408;DHT22;12542;50.924;4.516;2023-03-03T04:04:49;3.80;99.90
24408;DHT22;12542;50.924;4.516;2023-03-03T04:07:17;3.50;99.90
24408;DHT22;12542;50.924;4.516;2023-03-03T04:09:42;3.30;99.90
24408;DHT22;12542;50.924;4.516;2023-03-03T04:12:08;3.50;99.90
24408;DHT22;12542;50.924;4.516;2023-03-03T04:14:34;3.60;99.90
24408;DHT22;12542;50.924;4.516;2023-03-03T04:16:59;3.70;99.90
24408;DHT22;12542;50.924;4.516;2023-03-03T04:19:25;3.60;99.90
24408;DHT22;12542;50.924;4.516;2023-03-03T04:21:51;3.40;99.90
24408;DHT22;12542;50.924;4.516;2023-03-03T04:24:17;3.50;99.90
24408;DHT22;12542;50.924;4.516;2023-03-03T04:26:44;3.40;99.90
24408;DHT22;12542;50.924;4.516;2023-03-03T04:29:09;3.30;99.90
24408;DHT22;12542;50.924;4.516;2023-03-03T04:31:35;3.30;99.90
24408;DHT22;12542;50.924;4.516;2023-03-03T04:34:01;3.40;99.90
24408;DHT22;12542;50.924;4.516;2023-03-03T04:36:27;3.50;99.90
24408;DHT22;12542;50.924;4.516;2023-03-03T04:38:52;3.20;99.90
24408;DHT22;12542;50.924;4.516;2023-03-03T04:41:18;3.10;99.90
24408;DHT22;12542;50.924;4.516;2023-03-03T04:43:44;3.00;99.90
24408;DHT22;12542;50.924;4.516;2023-03-03T04:46:10;3.00;99.90
24408;DHT22;12542;50.924;4.516;2023-03-03T04:48:38;2.90;99.90
24408;DHT22;12542;50.924;4.516;2023-03-03T04:51:03;3.10;99.90
24408;DHT22;12542;50.924;4.516;2023-03-03T04:53:29;2.80;99.90
24408;DHT22;12542;50.924;4.516;2023-03-03T04:55:55;2.70;99.90
24408;DHT22;12542;50.924;4.516;2023-03-03T04:58:21;2.80;99.90
24408;DHT22;12542;50.924;4.516;2023-03-03T05:00:56;2.70;99.90
24408;DHT22;12542;50.924;4.516;2023-03-03T05:03:22;2.70;99.90
24408;DHT22;12542;50.924;4.516;2023-03-03T05:05:52;2.60;99.90
24408;DHT22;12542;50.924;4.516;2023-03-03T05:08:17;2.50;99.90
24408;DHT22;12542;50.924;4.516;2023-03-03T05:10:43;2.60;99.90
24408;DHT22;12542;50.924;4.516;2023-03-03T05:13:10;2.30;99.90
24408;DHT22;12542;50.924;4.516;2023-03-03T05:15:36;2.30;99.90
24408;DHT22;12542;50.924;4.516;2023-03-03T05:18:02;2.40;99.90
24408;DHT22;12542;50.924;4.516;2023-03-03T05:20:28;2.70;99.90
24408;DHT22;12542;50.924;4.516;2023-03-03T05:22:53;2.70;99.90
24408;DHT22;12542;50.924;4.516;2023-03-03T05:25:20;2.80;99.90
24408;DHT22;12542;50.924;4.516;2023-03-03T05:27:46;2.70;99.90
24408;DHT22;12542;50.924;4.516;2023-03-03T05:30:12;2.70;99.90
24408;DHT22;12542;50.924;4.516;2023-03-03T05:32:39;2.90;99.90
24408;DHT22;12542;50.924;4.516;2023-03-03T05:35:05;2.90;99.90
24408;DHT22;12542;50.924;4.516;2023-03-03T05:37:31;2.60;99.90
24408;DHT22;12542;50.924;4.516;2023-03-03T05:39:59;2.50;99.90
24408;DHT22;12542;50.924;4.516;2023-03-03T05:42:25;2.50;99.90
24408;DHT22;12542;50.924;4.516;2023-03-03T05:44:51;2.50;99.90
24408;DHT22;12542;50.924;4.516;2023-03-03T05:47:16;2.50;99.90
24408;DHT22;12542;50.924;4.516;2023-03-03T05:49:42;2.50;99.90
24408;DHT22;12542;50.924;4.516;2023-03-03T05:52:08;2.50;99.90
24408;DHT22;12542;50.924;4.516;2023-03-03T05:54:34;2.50;99.90
24408;DHT22;12542;50.924;4.516;2023-03-03T05:57:00;2.50;99.90
24408;DHT22;12542;50.924;4.516;2023-03-03T05:59:25;2.50;99.90
24408;DHT22;12542;50.924;4.516;2023-03-03T06:01:54;2.60;99.90
24408;DHT22;12542;50.924;4.516;2023-03-03T06:04:19;2.60;99.90
24408;DHT22;12542;50.924;4.516;2023-03-03T06:06:45;2.60;99.90
24408;DHT22;12542;50.924;4.516;2023-03-03T06:09:11;2.40;99.90
24408;DHT22;12542;50.924;4.516;2023-03-03T06:11:39;2.30;99.90
24408;DHT22;12542;50.924;4.516;2023-03-03T06:14:05;2.40;99.90
24408;DHT22;12542;50.924;4.516;2023-03-03T06:16:33;2.50;99.90
24408;DHT22;12542;50.924;4.516;2023-03-03T06:18:58;2.50;99.90
24408;DHT22;12542;50.924;4.516;2023-03-03T06:21:24;2.50;99.90
24408;DHT22;12542;50.924;4.516;2023-03-03T06:23:50;2.50;99.90
24408;DHT22;12542;50.924;4.516;2023-03-03T06:26:16;2.50;99.90
24408;DHT22;12542;50.924;4.516;2023-03-03T06:28:42;2.50;99.90
24408;DHT22;12542;50.924;4.516;2023-03-03T06:31:08;2.50;99.90
24408;DHT22;12542;50.924;4.516;2023-03-03T06:33:34;2.20;99.90
24408;DHT22;12542;50.924;4.516;2023-03-03T06:35:59;2.60;99.90
24408;DHT22;12542;50.924;4.516;2023-03-03T06:38:25;2.60;99.90
24408;DHT22;12542;50.924;4.516;2023-03-03T06:40:51;2.80;99.90
24408;DHT22;12542;50.924;4.516;2023-03-03T06:43:16;2.90;99.90
24408;DHT22;12542;50.924;4.516;2023-03-03T06:45:44;3.00;99.90
24408;DHT22;12542;50.924;4.516;2023-03-03T06:48:10;2.90;99.90
24408;DHT22;12542;50.924;4.516;2023-03-03T06:50:35;2.80;99.90
24408;DHT22;12542;50.924;4.516;2023-03-03T06:53:13;2.80;99.90
24408;DHT22;12542;50.924;4.516;2023-03-03T06:55:40;2.90;99.90
24408;DHT22;12542;50.924;4.516;2023-03-03T06:58:12;2.90;99.90
24408;DHT22;12542;50.924;4.516;2023-03-03T07:00:43;3.00;99.90
24408;DHT22;12542;50.924;4.516;2023-03-03T07:03:15;3.00;99.90
24408;DHT22;12542;50.924;4.516;2023-03-03T07:05:41;2.90;99.90
24408;DHT22;12542;50.924;4.516;2023-03-03T07:08:19;2.90;99.90
24408;DHT22;12542;50.924;4.516;2023-03-03T07:10:46;2.80;99.90
24408;DHT22;12542;50.924;4.516;2023-03-03T07:15:47;3.10;99.90
24408;DHT22;12542;50.924;4.516;2023-03-03T07:20:57;3.30;99.90
24408;DHT22;12542;50.924;4.516;2023-03-03T07:23:24;3.20;99.90
24408;DHT22;12542;50.924;4.516;2023-03-03T07:25:51;3.00;99.90
24408;DHT22;12542;50.924;4.516;2023-03-03T07:28:28;2.90;99.90
24408;DHT22;12542;50.924;4.516;2023-03-03T07:30:58;2.70;99.90
24408;DHT22;12542;50.924;4.516;2023-03-03T07:33:27;2.60;99.90
24408;DHT22;12542;50.924;4.516;2023-03-03T07:35:55;2.60;99.90
24408;DHT22;12542;50.924;4.516;2023-03-03T07:41:18;2.80;99.90
24408;DHT22;12542;50.924;4.516;2023-03-03T07:43:53;2.80;99.90
24408;DHT22;12542;50.924;4.516;2023-03-03T07:48:48;2.80;99.90
24408;DHT22;12542;50.924;4.516;2023-03-03T07:56:50;2.90;99.90
24408;DHT22;12542;50.924;4.516;2023-03-03T07:59:25;2.90;99.90
24408;DHT22;12542;50.924;4.516;2023-03-03T08:01:52;2.90;99.90
24408;DHT22;12542;50.924;4.516;2023-03-03T08:04:41;2.80;99.90
24408;DHT22;12542;50.924;4.516;2023-03-03T08:07:16;2.50;99.90
24408;DHT22;12542;50.924;4.516;2023-03-03T08:12:15;2.40;99.90
24408;DHT22;12542;50.924;4.516;2023-03-03T08:14:43;2.50;99.90
24408;DHT22;12542;50.924;4.516;2023-03-03T08:17:33;2.40;99.90
24408;DHT22;12542;50.924;4.516;2023-03-03T08:20:00;2.50;99.90
24408;DHT22;12542;50.924;4.516;2023-03-03T08:22:32;2.60;99.90
24408;DHT22;12542;50.924;4.516;2023-03-03T08:25:00;2.60;99.90
24408;DHT22;12542;50.924;4.516;2023-03-03T08:27:26;2.60;99.90
24408;DHT22;12542;50.924;4.516;2023-03-03T08:29:52;2.80;99.90
24408;DHT22;12542;50.924;4.516;2023-03-03T08:32:18;2.80;99.90
24408;DHT22;12542;50.924;4.516;2023-03-03T08:34:44;2.70;99.90
24408;DHT22;12542;50.924;4.516;2023-03-03T08:37:10;2.80;99.90
24408;DHT22;12542;50.924;4.516;2023-03-03T08:39:35;3.10;99.90
24408;DHT22;12542;50.924;4.516;2023-03-03T08:42:06;3.20;99.90
24408;DHT22;12542;50.924;4.516;2023-03-03T08:49:55;3.50;99.90
24408;DHT22;12542;50.924;4.516;2023-03-03T08:52:23;3.50;99.90
24408;DHT22;12542;50.924;4.516;2023-03-03T08:54:49;3.60;99.90
24408;DHT22;12542;50.924;4.516;2023-03-03T08:57:15;3.60;99.90
24408;DHT22;12542;50.924;4.516;2023-03-03T09:02:20;3.30;99.90
24408;DHT22;12542;50.924;4.516;2023-03-03T09:04:46;3.30;99.90
24408;DHT22;12542;50.924;4.516;2023-03-03T09:07:11;3.40;99.90
24408;DHT22;12542;50.924;4.516;2023-03-03T09:09:37;3.40;99.90
24408;DHT22;12542;50.924;4.516;2023-03-03T09:14:39;3.30;99.90
24408;DHT22;12542;50.924;4.516;2023-03-03T09:19:50;3.00;99.90
24408;DHT22;12542;50.924;4.516;2023-03-03T09:22:22;2.70;99.90
24408;DHT22;12542;50.924;4.516;2023-03-03T09:24:50;2.80;99.90
24408;DHT22;12542;50.924;4.516;2023-03-03T09:29:48;3.00;99.90
24408;DHT22;12542;50.924;4.516;2023-03-03T09:32:33;2.90;99.90
24408;DHT22;12542;50.924;4.516;2023-03-03T09:37:51;2.70;99.90
24408;DHT22;12542;50.924;4.516;2023-03-03T09:40:45;2.60;99.90
24408;DHT22;12542;50.924;4.516;2023-03-03T09:49:33;3.00;99.90
24408;DHT22;12542;50.924;4.516;2023-03-03T10:00:18;3.40;99.90
24408;DHT22;12542;50.924;4.516;2023-03-03T10:08:28;3.50;99.90
24408;DHT22;12542;50.924;4.516;2023-03-03T10:13:40;3.70;99.90
24408;DHT22;12542;50.924;4.516;2023-03-03T10:25:07;4.00;99.90
24408;DHT22;12542;50.924;4.516;2023-03-03T10:27:41;4.00;99.90
24408;DHT22;12542;50.924;4.516;2023-03-03T10:30:16;4.40;99.90
24408;DHT22;12542;50.924;4.516;2023-03-03T10:32:51;4.30;99.90
24408;DHT22;12542;50.924;4.516;2023-03-03T10:40:39;4.30;99.90
24408;DHT22;12542;50.924;4.516;2023-03-03T10:51:33;4.60;99.90
24408;DHT22;12542;50.924;4.516;2023-03-03T10:57:11;4.50;99.90
24408;DHT22;12542;50.924;4.516;2023-03-03T10:59:55;4.50;99.90
24408;DHT22;12542;50.924;4.516;2023-03-03T11:19:42;4.90;99.90
24408;DHT22;12542;50.924;4.516;2023-03-03T11:34:32;5.50;99.90
24408;DHT22;12542;50.924;4.516;2023-03-03T11:37:05;5.40;99.90
24408;DHT22;12542;50.924;4.516;2023-03-03T11:39:33;5.40;99.90
24408;DHT22;12542;50.924;4.516;2023-03-03T11:44:38;5.60;99.90
24408;DHT22;12542;50.924;4.516;2023-03-03T11:47:25;5.30;99.90
24408;DHT22;12542;50.924;4.516;2023-03-03T11:50:11;5.30;99.90
24408;DHT22;12542;50.924;4.516;2023-03-03T11:52:49;5.00;99.90
24408;DHT22;12542;50.924;4.516;2023-03-03T11:55:32;5.40;99.90
24408;DHT22;12542;50.924;4.516;2023-03-03T11:58:33;5.60;99.90
24408;DHT22;12542;50.924;4.516;2023-03-03T12:04:08;5.90;99.90
24408;DHT22;12542;50.924;4.516;2023-03-03T12:09:20;6.30;99.90
24408;DHT22;12542;50.924;4.516;2023-03-03T12:22:41;6.60;99.90
24408;DHT22;12542;50.924;4.516;2023-03-03T12:28:27;6.40;99.90
24408;DHT22;12542;50.924;4.516;2023-03-03T12:36:20;6.80;99.90
24408;DHT22;12542;50.924;4.516;2023-03-03T12:41:48;7.20;99.90
24408;DHT22;12542;50.924;4.516;2023-03-03T12:47:26;7.30;99.90
24408;DHT22;12542;50.924;4.516;2023-03-03T12:58:16;6.40;99.90
24408;DHT22;12542;50.924;4.516;2023-03-03T13:03:44;6.50;99.90
24408;DHT22;12542;50.924;4.516;2023-03-03T13:17:03;7.80;99.90
24408;DHT22;12542;50.924;4.516;2023-03-03T13:19:42;7.70;99.90
24408;DHT22;12542;50.924;4.516;2023-03-03T13:27:45;7.70;99.90
24408;DHT22;12542;50.924;4.516;2023-03-03T13:30:21;7.70;99.90
24408;DHT22;12542;50.924;4.516;2023-03-03T13:33:13;8.10;99.90
24408;DHT22;12542;50.924;4.516;2023-03-03T13:38:29;8.30;99.90
24408;DHT22;12542;50.924;4.516;2023-03-03T13:43:56;8.90;99.90
24408;DHT22;12542;50.924;4.516;2023-03-03T13:46:32;8.90;99.90
24408;DHT22;12542;50.924;4.516;2023-03-03T14:06:08;8.60;99.90
24408;DHT22;12542;50.924;4.516;2023-03-03T14:09:14;8.80;99.90
24408;DHT22;12542;50.924;4.516;2023-03-03T14:12:02;8.60;99.90
24408;DHT22;12542;50.924;4.516;2023-03-03T14:20:27;8.50;99.90
24408;DHT22;12542;50.924;4.516;2023-03-03T14:23:01;8.30;99.90
24408;DHT22;12542;50.924;4.516;2023-03-03T14:25:58;8.20;99.90
24408;DHT22;12542;50.924;4.516;2023-03-03T14:28:41;8.00;99.90
24408;DHT22;12542;50.924;4.516;2023-03-03T14:31:29;8.30;99.90
24408;DHT22;12542;50.924;4.516;2023-03-03T14:36:42;8.50;99.90
24408;DHT22;12542;50.924;4.516;2023-03-03T14:41:49;8.70;99.90
24408;DHT22;12542;50.924;4.516;2023-03-03T14:49:33;8.00;99.90
24408;DHT22;12542;50.924;4.516;2023-03-03T14:52:20;8.00;99.90
24408;DHT22;12542;50.924;4.516;2023-03-03T14:54:50;8.00;99.90
24408;DHT22;12542;50.924;4.516;2023-03-03T14:59:59;8.30;99.90
24408;DHT22;12542;50.924;4.516;2023-03-03T15:05:28;8.40;99.90
24408;DHT22;12542;50.924;4.516;2023-03-03T15:18:30;8.30;99.90
24408;DHT22;12542;50.924;4.516;2023-03-03T15:21:11;8.30;99.90
24408;DHT22;12542;50.924;4.516;2023-03-03T15:40:48;8.50;99.90
24408;DHT22;12542;50.924;4.516;2023-03-03T15:43:43;8.70;99.90
24408;DHT22;12542;50.924;4.516;2023-03-03T15:46:25;9.00;99.90
24408;DHT22;12542;50.924;4.516;2023-03-03T15:57:23;8.70;99.90
24408;DHT22;12542;50.924;4.516;2023-03-03T16:03:34;8.80;99.90
24408;DHT22;12542;50.924;4.516;2023-03-03T16:06:10;8.80;99.90
24408;DHT22;12542;50.924;4.516;2023-03-03T16:28:21;8.70;99.90
24408;DHT22;12542;50.924;4.516;2023-03-03T16:30:59;8.70;99.90
24408;DHT22;12542;50.924;4.516;2023-03-03T16:33:35;8.70;99.90
24408;DHT22;12542;50.924;4.516;2023-03-03T16:38:44;8.70;99.90
24408;DHT22;12542;50.924;4.516;2023-03-03T16:41:20;8.60;99.90
24408;DHT22;12542;50.924;4.516;2023-03-03T16:49:08;8.70;99.90
24408;DHT22;12542;50.924;4.516;2023-03-03T16:54:46;8.80;99.90
24408;DHT22;12542;50.924;4.516;2023-03-03T17:14:32;8.90;99.90
24408;DHT22;12542;50.924;4.516;2023-03-03T17:20:06;9.20;99.90
24408;DHT22;12542;50.924;4.516;2023-03-03T17:25:40;9.00;99.90
24408;DHT22;12542;50.924;4.516;2023-03-03T17:44:42;9.10;99.90
24408;DHT22;12542;50.924;4.516;2023-03-03T17:47:26;9.00;99.90
24408;DHT22;12542;50.924;4.516;2023-03-03T17:50:25;8.80;99.90
24408;DHT22;12542;50.924;4.516;2023-03-03T17:56:17;8.30;99.90
24408;DHT22;12542;50.924;4.516;2023-03-03T18:10:47;8.20;99.90
24408;DHT22;12542;50.924;4.516;2023-03-03T18:16:34;8.60;99.90
24408;DHT22;12542;50.924;4.516;2023-03-03T18:22:24;8.50;99.90
24408;DHT22;12542;50.924;4.516;2023-03-03T18:33:35;8.60;99.90
24408;DHT22;12542;50.924;4.516;2023-03-03T18:38:43;8.40;99.90
24408;DHT22;12542;50.924;4.516;2023-03-03T18:41:22;8.40;99.90
24408;DHT22;12542;50.924;4.516;2023-03-03T18:43:53;8.30;99.90
24408;DHT22;12542;50.924;4.516;2023-03-03T18:59:51;8.50;99.90
24408;DHT22;12542;50.924;4.516;2023-03-03T19:05:31;8.50;99.90
24408;DHT22;12542;50.924;4.516;2023-03-03T19:08:27;8.60;99.90
24408;DHT22;12542;50.924;4.516;2023-03-03T19:10:54;8.50;99.90
24408;DHT22;12542;50.924;4.516;2023-03-03T19:16:46;8.20;99.90
24408;DHT22;12542;50.924;4.516;2023-03-03T19:19:24;8.10;99.90
24408;DHT22;12542;50.924;4.516;2023-03-03T19:22:26;8.20;99.90
24408;DHT22;12542;50.924;4.516;2023-03-03T19:25:15;8.00;99.90
24408;DHT22;12542;50.924;4.516;2023-03-03T19:30:55;8.30;99.90
24408;DHT22;12542;50.924;4.516;2023-03-03T19:41:17;8.60;99.90
24408;DHT22;12542;50.924;4.516;2023-03-03T19:52:26;8.60;99.90
24408;DHT22;12542;50.924;4.516;2023-03-03T20:00:31;8.50;99.90
24408;DHT22;12542;50.924;4.516;2023-03-03T20:08:22;8.40;99.90
24408;DHT22;12542;50.924;4.516;2023-03-03T20:16:09;8.70;99.90
24408;DHT22;12542;50.924;4.516;2023-03-03T20:21:58;8.90;99.90
24408;DHT22;12542;50.924;4.516;2023-03-03T20:24:36;8.80;99.90
24408;DHT22;12542;50.924;4.516;2023-03-03T20:43:53;8.70;99.90
24408;DHT22;12542;50.924;4.516;2023-03-03T20:52:02;8.80;99.90
24408;DHT22;12542;50.924;4.516;2023-03-03T21:00:05;8.50;99.90
24408;DHT22;12542;50.924;4.516;2023-03-03T21:02:35;8.50;99.90
24408;DHT22;12542;50.924;4.516;2023-03-03T21:05:25;8.50;99.90
24408;DHT22;12542;50.924;4.516;2023-03-03T21:10:55;8.30;99.90
24408;DHT22;12542;50.924;4.516;2023-03-03T21:13:39;8.40;99.90
24408;DHT22;12542;50.924;4.516;2023-03-03T21:18:37;8.40;99.90
24408;DHT22;12542;50.924;4.516;2023-03-03T21:21:05;8.50;99.90
24408;DHT22;12542;50.924;4.516;2023-03-03T21:23:40;8.50;99.90
24408;DHT22;12542;50.924;4.516;2023-03-03T21:26:08;8.40;99.90
24408;DHT22;12542;50.924;4.516;2023-03-03T21:28:33;8.30;99.90
24408;DHT22;12542;50.924;4.516;2023-03-03T21:31:14;8.40;99.90
24408;DHT22;12542;50.924;4.516;2023-03-03T21:33:55;8.40;99.90
24408;DHT22;12542;50.924;4.516;2023-03-03T21:36:43;8.50;99.90
24408;DHT22;12542;50.924;4.516;2023-03-03T21:39:42;8.50;99.90
24408;DHT22;12542;50.924;4.516;2023-03-03T21:42:41;8.40;99.90
24408;DHT22;12542;50.924;4.516;2023-03-03T21:45:14;8.50;99.90
24408;DHT22;12542;50.924;4.516;2023-03-03T21:47:41;8.50;99.90
24408;DHT22;12542;50.924;4.516;2023-03-03T21:50:07;8.50;99.90
24408;DHT22;12542;50.924;4.516;2023-03-03T21:52:33;8.40;99.90
24408;DHT22;12542;50.924;4.516;2023-03-03T21:54:59;8.40;99.90
24408;DHT22;12542;50.924;4.516;2023-03-03T21:57:27;8.40;99.90
24408;DHT22;12542;50.924;4.516;2023-03-03T21:59:53;8.40;99.90
24408;DHT22;12542;50.924;4.516;2023-03-03T22:02:19;8.40;99.90
24408;DHT22;12542;50.924;4.516;2023-03-03T22:04:47;8.40;99.90
24408;DHT22;12542;50.924;4.516;2023-03-03T22:07:13;8.50;99.90
24408;DHT22;12542;50.924;4.516;2023-03-03T22:09:55;8.50;99.90
24408;DHT22;12542;50.924;4.516;2023-03-03T22:12:26;8.40;99.90
24408;DHT22;12542;50.924;4.516;2023-03-03T22:14:53;8.40;99.90
24408;DHT22;12542;50.924;4.516;2023-03-03T22:17:18;8.40;99.90
24408;DHT22;12542;50.924;4.516;2023-03-03T22:19:44;8.30;99.90
24408;DHT22;12542;50.924;4.516;2023-03-03T22:22:10;8.20;99.90
24408;DHT22;12542;50.924;4.516;2023-03-03T22:24:36;8.10;99.90
24408;DHT22;12542;50.924;4.516;2023-03-03T22:27:02;7.90;99.90
24408;DHT22;12542;50.924;4.516;2023-03-03T22:29:28;8.00;99.90
24408;DHT22;12542;50.924;4.516;2023-03-03T22:31:53;8.00;99.90
24408;DHT22;12542;50.924;4.516;2023-03-03T22:34:19;7.90;99.90
24408;DHT22;12542;50.924;4.516;2023-03-03T22:36:45;7.90;99.90
24408;DHT22;12542;50.924;4.516;2023-03-03T22:39:10;7.90;99.90
24408;DHT22;12542;50.924;4.516;2023-03-03T22:41:36;7.80;99.90
24408;DHT22;12542;50.924;4.516;2023-03-03T22:44:04;7.70;99.90
24408;DHT22;12542;50.924;4.516;2023-03-03T22:46:32;7.80;99.90
24408;DHT22;12542;50.924;4.516;2023-03-03T22:49:01;7.80;99.90
24408;DHT22;12542;50.924;4.516;2023-03-03T22:51:26;7.90;99.90
24408;DHT22;12542;50.924;4.516;2023-03-03T22:53:55;8.00;99.90
24408;DHT22;12542;50.924;4.516;2023-03-03T22:56:20;7.90;99.90
24408;DHT22;12542;50.924;4.516;2023-03-03T22:58:46;7.80;99.90
24408;DHT22;12542;50.924;4.516;2023-03-03T23:01:16;7.80;99.90
24408;DHT22;12542;50.924;4.516;2023-03-03T23:03:45;7.90;99.90
24408;DHT22;12542;50.924;4.516;2023-03-03T23:06:11;7.80;99.90
24408;DHT22;12542;50.924;4.516;2023-03-03T23:08:39;7.90;99.90
24408;DHT22;12542;50.924;4.516;2023-03-03T23:13:40;7.80;99.90
24408;DHT22;12542;50.924;4.516;2023-03-03T23:16:06;7.60;99.90
24408;DHT22;12542;50.924;4.516;2023-03-03T23:18:32;7.60;99.90
24408;DHT22;12542;50.924;4.516;2023-03-03T23:20:58;7.70;99.90
24408;DHT22;12542;50.924;4.516;2023-03-03T23:23:45;7.80;99.90
24408;DHT22;12542;50.924;4.516;2023-03-03T23:29:05;7.60;99.90
24408;DHT22;12542;50.924;4.516;2023-03-03T23:34:36;7.80;99.90
24408;DHT22;12542;50.924;4.516;2023-03-03T23:37:02;7.70;99.90
24408;DHT22;12542;50.924;4.516;2023-03-03T23:39:28;7.70;99.90
24408;DHT22;12542;50.924;4.516;2023-03-03T23:41:54;7.70;99.90
24408;DHT22;12542;50.924;4.516;2023-03-03T23:44:19;7.90;99.90
24408;DHT22;12542;50.924;4.516;2023-03-03T23:46:47;7.80;99.90
24408;DHT22;12542;50.924;4.516;2023-03-03T23:49:13;7.60;99.90
24408;DHT22;12542;50.924;4.516;2023-03-03T23:51:39;7.70;99.90
24408;DHT22;12542;50.924;4.516;2023-03-03T23:54:04;7.70;99.90
24408;DHT22;12542;50.924;4.516;2023-03-03T23:56:30;7.70;99.90
24408;DHT22;12542;50.924;4.516;2023-03-03T23:58:56;7.80;99.90
